createdAt,value
2018-11-07T00:01:08.777Z,8.01
2018-11-07T00:03:37.014Z,7.85
2018-11-07T00:06:05.334Z,7.94
2018-11-07T00:08:33.562Z,8.18
2018-11-07T00:11:01.747Z,8.03
2018-11-07T00:13:30.009Z,7.84
2018-11-07T00:15:58.189Z,7.76
2018-11-07T00:18:26.366Z,7.62
2018-11-07T00:20:54.526Z,7.45
2018-11-07T00:23:22.688Z,7.51
2018-11-07T00:25:50.878Z,7.36
2018-11-07T00:28:19.152Z,7.25
2018-11-07T00:30:47.344Z,7.20
2018-11-07T00:33:15.536Z,7.14
2018-11-07T00:35:43.774Z,7.11
2018-11-07T00:38:11.934Z,7.08
2018-11-07T00:40:40.446Z,7.01
2018-11-07T00:43:08.618Z,6.99
2018-11-07T00:45:36.785Z,6.98
2018-11-07T00:48:04.978Z,7.01
2018-11-07T00:50:33.138Z,7.00
2018-11-07T00:53:01.308Z,6.96
2018-11-07T00:55:29.841Z,6.92
2018-11-07T00:57:58.094Z,6.85
2018-11-07T01:00:26.341Z,6.77
2018-11-07T01:02:54.532Z,6.73
2018-11-07T01:05:22.786Z,6.82
2018-11-07T01:07:50.968Z,6.96
2018-11-07T01:10:19.137Z,6.96
2018-11-07T01:12:47.413Z,6.99
2018-11-07T01:15:15.584Z,6.92
2018-11-07T01:17:43.772Z,6.86
2018-11-07T01:20:13.196Z,6.88
2018-11-07T01:22:41.357Z,7.03
2018-11-07T01:25:09.899Z,7.12
2018-11-07T01:27:38.252Z,6.99
2018-11-07T01:30:08.873Z,7.06
2018-11-07T01:32:37.059Z,7.00
2018-11-07T01:35:05.807Z,6.93
2018-11-07T01:37:33.984Z,6.81
2018-11-07T01:40:02.172Z,6.93
2018-11-07T01:42:30.421Z,6.91
2018-11-07T01:44:59.165Z,6.83
2018-11-07T01:47:28.419Z,6.86
2018-11-07T01:49:56.744Z,6.86
2018-11-07T01:52:24.953Z,6.91
2018-11-07T01:54:53.469Z,6.71
2018-11-07T01:57:21.629Z,6.59
2018-11-07T01:59:49.887Z,6.65
2018-11-07T02:02:18.121Z,6.57
2018-11-07T02:04:46.341Z,6.45
2018-11-07T02:07:14.505Z,6.37
2018-11-07T02:09:42.699Z,6.40
2018-11-07T02:12:10.873Z,6.38
2018-11-07T02:14:39.028Z,6.31
2018-11-07T02:17:07.208Z,6.32
2018-11-07T02:19:35.976Z,6.26
2018-11-07T02:22:04.578Z,6.20
2018-11-07T02:24:32.781Z,6.14
2018-11-07T02:27:00.943Z,6.12
2018-11-07T02:29:29.116Z,6.02
2018-11-07T02:31:57.407Z,5.95
2018-11-07T02:34:25.571Z,5.91
2018-11-07T02:36:53.773Z,5.91
2018-11-07T02:39:22.024Z,5.98
2018-11-07T02:41:50.777Z,5.95
2018-11-07T02:44:18.986Z,5.90
2018-11-07T02:46:47.166Z,5.89
2018-11-07T02:49:15.473Z,5.84
2018-11-07T02:51:43.697Z,5.83
2018-11-07T02:54:11.892Z,5.80
2018-11-07T02:56:40.157Z,5.75
2018-11-07T02:59:08.315Z,5.74
2018-11-07T03:01:36.557Z,5.74
2018-11-07T03:04:04.873Z,5.76
2018-11-07T03:06:33.637Z,5.72
2018-11-07T03:09:01.820Z,5.76
2018-11-07T03:11:30.025Z,5.70
2018-11-07T03:13:58.242Z,5.74
2018-11-07T03:16:27.293Z,5.73
2018-11-07T03:18:55.588Z,5.68
2018-11-07T03:21:23.829Z,5.68
2018-11-07T03:23:52.020Z,5.77
2018-11-07T03:26:20.305Z,5.75
2018-11-07T03:28:48.563Z,5.69
2018-11-07T03:31:16.747Z,5.62
2018-11-07T03:33:45.016Z,5.60
2018-11-07T03:36:13.248Z,5.61
2018-11-07T03:38:41.468Z,5.58
2018-11-07T03:41:09.670Z,5.53
2018-11-07T03:43:38.145Z,5.48
2018-11-07T03:46:06.412Z,5.45
2018-11-07T03:48:34.681Z,5.43
2018-11-07T03:51:02.957Z,5.39
2018-11-07T03:53:31.110Z,5.38
2018-11-07T03:55:59.276Z,5.37
2018-11-07T03:58:28.114Z,5.36
2018-11-07T04:00:56.616Z,5.34
2018-11-07T04:03:24.777Z,5.33
2018-11-07T04:05:53.009Z,5.34
2018-11-07T04:08:21.268Z,5.31
2018-11-07T04:10:49.433Z,5.32
2018-11-07T04:13:18.077Z,5.35
2018-11-07T04:15:46.339Z,5.34
2018-11-07T04:18:14.505Z,5.33
2018-11-07T04:20:42.661Z,5.35
2018-11-07T04:23:10.839Z,5.32
2018-11-07T04:25:39.292Z,5.34
2018-11-07T04:28:07.514Z,5.39
2018-11-07T04:30:35.797Z,5.48
2018-11-07T04:33:04.273Z,5.51
2018-11-07T04:35:32.529Z,5.48
2018-11-07T04:38:00.697Z,5.39
2018-11-07T04:40:28.864Z,5.45
2018-11-07T04:42:57.357Z,5.42
2018-11-07T04:45:25.541Z,5.36
2018-11-07T04:47:53.822Z,5.29
2018-11-07T04:50:22.007Z,5.24
2018-11-07T04:52:50.180Z,5.17
2018-11-07T04:55:18.574Z,5.15
2018-11-07T04:57:46.818Z,5.13
2018-11-07T05:00:15.095Z,5.05
2018-11-07T05:02:43.438Z,5.00
2018-11-07T05:05:11.818Z,4.98
2018-11-07T05:07:40.044Z,4.93
2018-11-07T05:10:09.284Z,4.88
2018-11-07T05:12:37.446Z,4.88
2018-11-07T05:15:06.400Z,4.86
2018-11-07T05:17:34.571Z,4.83
2018-11-07T05:20:02.745Z,4.85
2018-11-07T05:22:30.957Z,4.83
2018-11-07T05:24:59.129Z,4.82
2018-11-07T05:27:27.773Z,4.84
2018-11-07T05:29:55.961Z,4.83
2018-11-07T05:32:24.196Z,4.86
2018-11-07T05:34:52.445Z,4.89
2018-11-07T05:37:21.320Z,4.93
2018-11-07T05:39:49.485Z,4.99
2018-11-07T05:42:18.367Z,4.99
2018-11-07T05:44:46.644Z,5.04
2018-11-07T05:47:14.810Z,5.15
2018-11-07T05:49:42.980Z,5.27
2018-11-07T05:52:11.486Z,5.40
2018-11-07T05:54:39.683Z,5.50
2018-11-07T05:57:07.928Z,5.59
2018-11-07T05:59:36.517Z,5.62
2018-11-07T06:02:05.304Z,5.66
2018-11-07T06:04:33.456Z,5.65
2018-11-07T06:07:01.664Z,5.63
2018-11-07T06:09:30.117Z,5.64
2018-11-07T06:11:58.814Z,5.70
2018-11-07T06:14:27.095Z,5.76
2018-11-07T06:16:55.362Z,5.82
2018-11-07T06:19:23.630Z,5.85
2018-11-07T06:21:51.809Z,5.88
2018-11-07T06:24:20.105Z,5.91
2018-11-07T06:26:48.269Z,5.90
2018-11-07T06:29:16.557Z,5.92
2018-11-07T06:31:51.357Z,5.96
2018-11-07T06:34:19.549Z,6.01
2018-11-07T06:36:48.125Z,6.13
2018-11-07T06:39:16.294Z,6.23
2018-11-07T06:41:44.924Z,6.34
2018-11-07T06:44:13.103Z,6.46
2018-11-07T06:46:41.263Z,6.53
2018-11-07T06:49:09.521Z,6.60
2018-11-07T06:51:37.788Z,6.69
2018-11-07T06:54:06.166Z,6.79
2018-11-07T06:56:34.620Z,6.92
2018-11-07T06:59:03.038Z,6.93
2018-11-07T07:01:31.257Z,6.93
2018-11-07T07:03:59.490Z,6.94
2018-11-07T07:06:27.660Z,6.93
2018-11-07T07:08:55.846Z,6.90
2018-11-07T07:11:24.116Z,6.93
2018-11-07T07:13:52.282Z,6.99
2018-11-07T07:16:20.440Z,7.09
2018-11-07T07:18:49.429Z,7.15
2018-11-07T07:21:17.549Z,7.20
2018-11-07T07:23:45.781Z,7.37
2018-11-07T07:26:13.967Z,7.56
2018-11-07T07:28:42.242Z,7.81
2018-11-07T07:31:10.492Z,7.99
2018-11-07T07:33:38.721Z,7.94
2018-11-07T07:36:06.834Z,8.18
2018-11-07T07:38:35.005Z,8.30
2018-11-07T07:41:03.498Z,8.34
2018-11-07T07:43:31.692Z,8.34
2018-11-07T07:45:59.976Z,8.30
2018-11-07T07:48:28.157Z,8.25
2018-11-07T07:50:56.655Z,8.24
2018-11-07T07:53:24.816Z,8.45
2018-11-07T07:55:53.041Z,8.50
2018-11-07T07:58:21.193Z,8.58
2018-11-07T08:00:49.656Z,8.71
2018-11-07T08:03:17.841Z,8.81
2018-11-07T08:05:46.078Z,9.05
2018-11-07T08:08:14.249Z,9.22
2018-11-07T08:10:42.442Z,9.48
2018-11-07T08:13:10.702Z,9.44
2018-11-07T08:15:38.984Z,9.53
2018-11-07T08:18:07.340Z,9.77
2018-11-07T08:20:35.900Z,9.86
2018-11-07T08:23:04.066Z,10.08
2018-11-07T08:25:32.318Z,9.85
2018-11-07T08:28:00.549Z,10.22
2018-11-07T08:30:28.806Z,10.42
2018-11-07T08:32:57.042Z,10.52
2018-11-07T08:35:25.311Z,10.57
2018-11-07T08:37:53.493Z,10.55
2018-11-07T08:40:23.054Z,10.72
2018-11-07T08:42:51.417Z,10.63
2018-11-07T08:45:19.603Z,10.91
2018-11-07T08:47:48.334Z,11.21
2018-11-07T08:50:19.222Z,11.56
2018-11-07T08:52:47.958Z,11.73
2018-11-07T08:55:18.525Z,12.12
2018-11-07T08:57:46.693Z,12.41
2018-11-07T09:00:16.210Z,12.29
2018-11-07T09:02:44.801Z,12.46
2018-11-07T09:05:13.581Z,12.48
2018-11-07T09:07:42.383Z,12.55
2018-11-07T09:10:12.073Z,12.93
2018-11-07T09:12:40.744Z,13.05
2018-11-07T09:15:11.676Z,13.25
2018-11-07T09:17:39.930Z,13.17
2018-11-07T09:20:10.033Z,13.03
2018-11-07T09:22:38.397Z,13.11
2018-11-07T09:25:06.858Z,12.42
2018-11-07T09:27:35.343Z,12.49
2018-11-07T09:30:03.532Z,12.87
2018-11-07T09:32:31.714Z,12.42
2018-11-07T09:34:59.884Z,12.61
2018-11-07T09:37:28.102Z,12.78
2018-11-07T09:39:56.314Z,13.24
2018-11-07T09:42:24.554Z,13.81
2018-11-07T09:44:53.123Z,14.31
2018-11-07T09:47:21.307Z,14.64
2018-11-07T09:49:49.478Z,14.82
2018-11-07T09:52:17.757Z,15.29
2018-11-07T09:54:46.014Z,15.81
2018-11-07T09:57:14.197Z,16.32
2018-11-07T09:59:42.403Z,17.07
2018-11-07T10:02:10.575Z,18.08
2018-11-07T10:04:38.809Z,19.58
2018-11-07T10:07:06.997Z,21.06
2018-11-07T10:09:35.169Z,21.57
2018-11-07T10:12:03.449Z,21.79
2018-11-07T10:14:31.722Z,22.68
2018-11-07T10:16:59.967Z,21.39
2018-11-07T10:19:28.161Z,21.17
2018-11-07T10:21:56.352Z,21.71
2018-11-07T10:24:24.504Z,21.12
2018-11-07T10:26:53.001Z,20.61
2018-11-07T10:29:21.491Z,20.51
2018-11-07T10:31:49.297Z,20.86
2018-11-07T10:34:17.452Z,21.62
2018-11-07T10:36:45.698Z,21.70
2018-11-07T10:39:14.030Z,21.47
2018-11-07T10:41:42.202Z,21.66
2018-11-07T10:44:10.424Z,22.00
2018-11-07T10:46:38.540Z,22.05
2018-11-07T10:49:06.713Z,21.77
2018-11-07T10:51:34.919Z,21.71
2018-11-07T10:54:03.125Z,21.36
2018-11-07T10:56:31.302Z,20.96
2018-11-07T10:58:59.477Z,20.97
2018-11-07T11:01:33.233Z,20.98
2018-11-07T11:04:01.459Z,20.94
2018-11-07T11:06:29.721Z,22.36
2018-11-07T11:08:58.829Z,23.41
2018-11-07T11:11:27.177Z,25.29
2018-11-07T11:13:55.271Z,25.11
2018-11-07T11:16:23.763Z,25.59
2018-11-07T11:18:52.275Z,25.56
2018-11-07T11:21:20.468Z,26.43
2018-11-07T11:23:49.456Z,27.26
2018-11-07T11:26:17.627Z,27.69
2018-11-07T11:28:45.844Z,27.48
2018-11-07T11:31:14.032Z,28.76
2018-11-07T11:33:42.330Z,29.21
2018-11-07T11:36:10.672Z,30.14
2018-11-07T11:38:38.949Z,29.81
2018-11-07T11:41:07.317Z,29.00
2018-11-07T11:43:35.821Z,26.71
2018-11-07T11:46:04.006Z,26.51
2018-11-07T11:48:32.281Z,27.81
2018-11-07T11:51:00.580Z,30.38
2018-11-07T11:53:28.718Z,31.58
2018-11-07T11:55:57.231Z,31.18
2018-11-07T11:58:25.985Z,30.90
2018-11-07T12:00:54.269Z,30.20
2018-11-07T12:03:22.459Z,28.98
2018-11-07T12:05:50.629Z,29.76
2018-11-07T12:08:18.857Z,29.36
2018-11-07T12:10:47.118Z,29.43
2018-11-07T12:13:15.381Z,29.48
2018-11-07T12:15:43.504Z,29.57
2018-11-07T12:18:11.697Z,29.93
2018-11-07T12:20:39.967Z,30.08
2018-11-07T12:23:08.243Z,30.33
2018-11-07T12:25:36.415Z,30.79
2018-11-07T12:28:04.709Z,30.24
2018-11-07T12:30:32.886Z,29.88
2018-11-07T12:33:01.468Z,29.45
2018-11-07T12:35:29.644Z,27.76
2018-11-07T12:37:57.888Z,27.43
2018-11-07T12:40:26.083Z,27.73
2018-11-07T12:42:54.461Z,27.67
2018-11-07T12:45:22.615Z,27.23
2018-11-07T12:47:50.962Z,27.15
2018-11-07T12:50:20.886Z,27.54
2018-11-07T12:52:48.981Z,27.12
2018-11-07T12:55:17.746Z,27.75
2018-11-07T12:57:46.004Z,27.72
2018-11-07T13:00:16.948Z,28.19
2018-11-07T13:02:45.588Z,28.63
2018-11-07T13:05:14.948Z,28.69
2018-11-07T13:07:44.743Z,29.34
2018-11-07T13:10:16.158Z,31.05
2018-11-07T13:12:45.018Z,31.77
2018-11-07T13:15:13.880Z,32.31
2018-11-07T13:17:42.305Z,33.02
2018-11-07T13:20:12.891Z,34.20
2018-11-07T13:22:41.414Z,34.11
2018-11-07T13:25:10.485Z,34.89
2018-11-07T13:27:38.715Z,34.79
2018-11-07T13:30:10.112Z,32.42
2018-11-07T13:32:38.741Z,32.23
2018-11-07T13:35:07.678Z,31.50
2018-11-07T13:37:36.154Z,30.84
2018-11-07T13:40:05.801Z,29.97
2018-11-07T13:42:33.980Z,29.73
2018-11-07T13:45:02.250Z,29.94
2018-11-07T13:47:30.547Z,29.75
2018-11-07T13:49:58.966Z,29.27
2018-11-07T13:52:27.178Z,28.95
2018-11-07T13:54:55.364Z,28.80
2018-11-07T13:57:23.624Z,29.02
2018-11-07T13:59:51.822Z,27.69
2018-11-07T14:02:20.094Z,27.61
2018-11-07T14:04:48.368Z,26.21
2018-11-07T14:07:16.574Z,25.89
2018-11-07T14:09:44.835Z,25.69
2018-11-07T14:12:13.017Z,25.02
2018-11-07T14:14:41.254Z,23.68
2018-11-07T14:17:09.456Z,23.61
2018-11-07T14:19:37.645Z,23.03
2018-11-07T14:22:05.889Z,22.36
2018-11-07T14:24:34.140Z,21.96
2018-11-07T14:27:02.326Z,21.88
2018-11-07T14:29:30.521Z,22.00
2018-11-07T14:31:58.762Z,21.44
2018-11-07T14:34:26.974Z,22.34
2018-11-07T14:36:55.209Z,23.14
2018-11-07T14:39:23.421Z,23.37
2018-11-07T14:41:51.614Z,22.93
2018-11-07T14:44:19.857Z,22.51
2018-11-07T14:46:48.361Z,22.46
2018-11-07T14:49:16.625Z,22.63
2018-11-07T14:51:44.901Z,22.62
2018-11-07T14:54:13.096Z,22.45
2018-11-07T14:56:41.237Z,22.22
2018-11-07T14:59:09.396Z,21.91
2018-11-07T15:01:37.623Z,22.30
2018-11-07T15:04:06.172Z,22.41
2018-11-07T15:06:34.381Z,22.31
2018-11-07T15:09:02.702Z,21.26
2018-11-07T15:11:31.340Z,20.79
2018-11-07T15:13:59.386Z,20.69
2018-11-07T15:16:27.579Z,20.44
2018-11-07T15:18:55.836Z,19.57
2018-11-07T15:21:23.997Z,18.54
2018-11-07T15:23:52.198Z,17.88
2018-11-07T15:26:20.360Z,17.42
2018-11-07T15:28:48.526Z,17.22
2018-11-07T15:31:16.756Z,16.77
2018-11-07T15:33:44.986Z,16.42
2018-11-07T15:36:13.517Z,16.30
2018-11-07T15:38:41.614Z,15.96
2018-11-07T15:41:09.785Z,15.79
2018-11-07T15:43:37.960Z,15.50
2018-11-07T15:46:06.133Z,14.98
2018-11-07T15:48:34.388Z,14.66
2018-11-07T15:51:07.957Z,14.37
2018-11-07T15:53:36.217Z,14.15
2018-11-07T15:56:06.396Z,13.98
2018-11-07T15:58:34.645Z,13.76
2018-11-07T16:01:02.877Z,13.63
2018-11-07T16:03:49.667Z,13.44
2018-11-07T16:06:19.895Z,13.24
2018-11-07T16:08:48.734Z,13.05
2018-11-07T16:11:16.922Z,12.85
2018-11-07T16:13:45.156Z,12.75
2018-11-07T16:16:13.530Z,12.64
2018-11-07T16:18:41.720Z,12.45
2018-11-07T16:21:09.990Z,12.31
2018-11-07T16:23:38.438Z,12.21
2018-11-07T16:26:06.664Z,12.15
2018-11-07T16:28:34.941Z,12.04
2018-11-07T16:31:03.094Z,11.90
2018-11-07T16:33:31.698Z,11.77
2018-11-07T16:35:59.957Z,11.66
2018-11-07T16:38:28.117Z,11.62
2018-11-07T16:40:56.346Z,11.50
2018-11-07T16:43:24.501Z,11.38
2018-11-07T16:45:52.667Z,11.28
2018-11-07T16:48:20.987Z,11.25
2018-11-07T16:50:49.261Z,11.18
2018-11-07T16:53:17.481Z,11.11
2018-11-07T16:55:46.719Z,11.09
2018-11-07T16:58:15.089Z,10.98
2018-11-07T17:00:43.360Z,10.94
2018-11-07T17:03:11.630Z,10.84
2018-11-07T17:05:39.796Z,10.74
2018-11-07T17:08:08.014Z,10.68
2018-11-07T17:10:36.546Z,10.60
2018-11-07T17:13:04.812Z,10.55
2018-11-07T17:15:33.114Z,10.48
2018-11-07T17:18:01.584Z,10.41
2018-11-07T17:20:29.903Z,10.38
2018-11-07T17:22:58.066Z,10.25
2018-11-07T17:25:26.834Z,10.20
2018-11-07T17:27:55.099Z,10.25
2018-11-07T17:30:23.375Z,10.22
2018-11-07T17:32:51.554Z,10.21
2018-11-07T17:35:19.849Z,10.19
2018-11-07T17:37:48.355Z,10.10
2018-11-07T17:40:18.789Z,9.99
2018-11-07T17:42:47.368Z,9.84
2018-11-07T17:45:17.413Z,9.73
2018-11-07T17:47:45.996Z,9.67
2018-11-07T17:50:15.264Z,9.64
2018-11-07T17:52:43.752Z,9.61
2018-11-07T17:55:13.053Z,9.63
2018-11-07T17:57:41.403Z,9.69
2018-11-07T18:00:12.061Z,9.64
2018-11-07T18:02:40.233Z,9.54
2018-11-07T18:05:08.604Z,9.52
2018-11-07T18:07:37.900Z,9.48
2018-11-07T18:10:09.319Z,9.46
2018-11-07T18:12:37.475Z,9.40
2018-11-07T18:15:06.828Z,9.26
2018-11-07T18:17:35.113Z,9.15
2018-11-07T18:20:03.358Z,9.08
2018-11-07T18:22:31.609Z,9.04
2018-11-07T18:25:00.136Z,9.08
2018-11-07T18:27:29.517Z,9.01
2018-11-07T18:29:57.670Z,8.94
2018-11-07T18:32:25.902Z,9.02
2018-11-07T18:34:54.124Z,9.02
2018-11-07T18:37:22.369Z,8.99
2018-11-07T18:39:50.597Z,8.90
2018-11-07T18:42:18.785Z,8.87
2018-11-07T18:44:47.019Z,8.83
2018-11-07T18:47:15.253Z,8.66
2018-11-07T18:49:43.437Z,8.61
2018-11-07T18:52:11.617Z,8.46
2018-11-07T18:54:39.817Z,8.22
2018-11-07T18:57:08.953Z,8.21
2018-11-07T18:59:37.689Z,8.12
2018-11-07T19:02:06.877Z,8.09
2018-11-07T19:04:35.922Z,8.14
2018-11-07T19:07:04.191Z,8.12
2018-11-07T19:09:32.388Z,8.17
2018-11-07T19:12:01.220Z,8.24
2018-11-07T19:14:30.024Z,8.36
2018-11-07T19:16:59.395Z,8.39
2018-11-07T19:19:28.757Z,8.39
2018-11-07T19:21:58.316Z,8.40
2018-11-07T19:24:26.518Z,8.49
2018-11-07T19:26:54.776Z,8.54
2018-11-07T19:29:22.905Z,8.61
2018-11-07T19:31:51.158Z,8.62
2018-11-07T19:34:20.433Z,8.62
2018-11-07T19:36:48.641Z,8.69
2018-11-07T19:39:16.849Z,8.75
2018-11-07T19:41:45.153Z,8.76
2018-11-07T19:44:13.353Z,8.73
2018-11-07T19:46:41.659Z,8.82
2018-11-07T19:49:09.857Z,8.83
2018-11-07T19:51:38.105Z,8.81
2018-11-07T19:54:06.315Z,8.81
2018-11-07T19:56:34.521Z,8.82
2018-11-07T19:59:02.802Z,8.81
2018-11-07T20:01:31.079Z,8.83
2018-11-07T20:03:59.262Z,8.87
2018-11-07T20:06:27.524Z,8.90
2018-11-07T20:09:02.602Z,8.83
2018-11-07T20:11:30.863Z,8.83
2018-11-07T20:13:59.088Z,8.86
2018-11-07T20:16:27.413Z,8.87
2018-11-07T20:18:55.674Z,8.74
2018-11-07T20:21:23.872Z,8.77
2018-11-07T20:23:52.054Z,8.76
2018-11-07T20:26:20.635Z,8.71
2018-11-07T20:28:48.996Z,8.80
2018-11-07T20:31:17.047Z,8.80
2018-11-07T20:33:45.318Z,8.78
2018-11-07T20:36:13.569Z,8.81
2018-11-07T20:38:41.658Z,8.78
2018-11-07T20:41:09.987Z,8.69
2018-11-07T20:43:38.579Z,8.70
2018-11-07T20:46:06.799Z,8.70
2018-11-07T20:48:35.088Z,8.74
2018-11-07T20:51:03.291Z,8.78
2018-11-07T20:53:31.471Z,8.73
2018-11-07T20:56:02.665Z,8.69
2018-11-07T20:58:31.057Z,8.76
2018-11-07T21:00:59.317Z,8.74
2018-11-07T21:03:28.612Z,8.70
2018-11-07T21:05:57.853Z,8.65
2018-11-07T21:08:27.393Z,8.74
2018-11-07T21:10:56.500Z,8.80
2018-11-07T21:13:25.751Z,8.72
2018-11-07T21:15:54.005Z,8.71
2018-11-07T21:18:22.286Z,8.73
2018-11-07T21:20:50.461Z,8.86
2018-11-07T21:23:18.644Z,8.86
2018-11-07T21:25:46.887Z,8.85
2018-11-07T21:28:15.068Z,8.89
2018-11-07T21:30:43.664Z,8.90
2018-11-07T21:33:11.836Z,8.72
2018-11-07T21:35:40.006Z,8.68
2018-11-07T21:38:08.263Z,8.72
2018-11-07T21:40:36.451Z,8.70
2018-11-07T21:43:04.809Z,8.67
2018-11-07T21:45:33.002Z,8.78
2018-11-07T21:48:01.177Z,8.73
2018-11-07T21:50:29.343Z,8.69
2018-11-07T21:52:57.513Z,8.55
2018-11-07T21:55:25.699Z,8.63
2018-11-07T21:57:53.867Z,8.73
2018-11-07T22:00:22.033Z,8.81
2018-11-07T22:02:50.281Z,8.74
2018-11-07T22:05:18.743Z,8.79
2018-11-07T22:07:46.962Z,8.85
2018-11-07T22:10:16.592Z,8.85
2018-11-07T22:12:44.849Z,8.89
2018-11-07T22:15:13.118Z,8.86
2018-11-07T22:17:41.477Z,8.94
2018-11-07T22:20:14.236Z,9.01
2018-11-07T22:22:42.744Z,8.85
2018-11-07T22:25:10.916Z,8.86
2018-11-07T22:27:39.228Z,8.67
2018-11-07T22:30:09.193Z,8.52
2018-11-07T22:32:38.157Z,8.47
2018-11-07T22:35:07.391Z,8.44
2018-11-07T22:37:35.636Z,8.45
2018-11-07T22:40:04.114Z,8.39
2018-11-07T22:42:32.307Z,8.45
2018-11-07T22:45:00.552Z,8.44
2018-11-07T22:47:28.828Z,8.44
2018-11-07T22:49:57.086Z,8.49
2018-11-07T22:52:25.251Z,8.48
2018-11-07T22:54:53.538Z,8.44
2018-11-07T22:57:21.709Z,8.45
2018-11-07T22:59:49.962Z,8.49
2018-11-07T23:02:18.166Z,8.54
2018-11-07T23:04:46.334Z,8.57
2018-11-07T23:07:15.439Z,8.61
2018-11-07T23:09:43.763Z,8.53
2018-11-07T23:12:12.003Z,8.58
2018-11-07T23:14:40.295Z,8.57
2018-11-07T23:17:08.537Z,8.59
2018-11-07T23:19:36.701Z,8.65
2018-11-07T23:22:05.429Z,8.66
2018-11-07T23:24:33.633Z,8.65
2018-11-07T23:27:01.806Z,8.69
2018-11-07T23:29:29.982Z,8.66
2018-11-07T23:31:58.201Z,8.65
2018-11-07T23:34:26.365Z,8.65
2018-11-07T23:36:54.550Z,8.55
2018-11-07T23:39:22.745Z,8.52
2018-11-07T23:41:51.000Z,8.42
2018-11-07T23:44:19.212Z,8.45
2018-11-07T23:46:47.372Z,8.40
2018-11-07T23:49:15.624Z,8.23
2018-11-07T23:51:49.908Z,8.25
2018-11-07T23:54:19.604Z,8.25
2018-11-07T23:56:47.980Z,8.26
2018-11-07T23:59:16.172Z,8.17
